Manomet, Massachusetts
Current Conditions -  °F | °C
As of 2:52 PM on Monday 26 Jan 2015 (Local Time) from KPYM Reporting Station
Light Snow Light Snow  
Wind Chill: 18°   Ceiling: 2500
Heat Index: 29°   Visibility: 1.5mi
Dew Point: 24°   Wind: 15mph
Humidity: 82%   Direction: 60°ENE
Pressure: 29.99"   Gusts: 23mph
Location:  41.92°N, 70.57°W
Report Text: KPYM 261952Z AUTO 06013G20KT 1 1/2SM -SN SCT019 OVC025 M02/M04 A2999 RMK AO2 SLP159 P0000 T10171044
Loading
Personal Weather Stations






























Interactive Weather Map New forecast layout! Learn more

10-Day Weather Forecast

Advertisements
Track Severe Weather on mobile